Terminal Aerodrome Forecast
Issued by NWS Wichita, KS

Home | Current Version | Previous Version | Text Only | Print | Product List | Glossary On
Versions: 1 2 3 4 5 6 7 8 9 10 11 12 13 14 15 16 17 18 19
144
FTUS43 KICT 031721
TAFICT
TAF
KICT 031721Z 0318/0418 15004KT P6SM -RA OVC035
     FM032300 14004KT 5SM -RA OVC035
     FM040100 VRB03KT 3SM -RA OVC010
     FM040600 VRB03KT 2SM -RA OVC008
     FM041500 31004KT P6SM SCT110=

USA.gov is the U.S. government's official web portal to all federal, state and local government web resources and services.